Time;durP1;ratioP1;P1;durP2;ratioP2;P2;SDS_P1;SDS_P2;PMS_P1;PMS_P2;Temp;Humidity;BMP_temperature;BMP_pressure;BME280_temperature;BME280_humidity;BME280_pressure;Samples;Min_cycle;Max_cycle;Signal;HPM_P1;HPM_P2
2024/03/15 00:00:56;;;;;;;5.53;3.70;;;;;;;9.96;74.64;98410.72;5113125;27;41301;-76
2024/03/15 00:03:24;;;;;;;3.87;3.30;;;;;;;9.96;74.36;98405.44;5114578;27;43348;-76
2024/03/15 00:05:52;;;;;;;4.27;3.50;;;;;;;9.97;74.31;98418.56;5080448;27;42509;-76
2024/03/15 00:08:20;;;;;;;4.87;3.80;;;;;;;9.94;74.40;98412.63;5114415;27;40071;-76
2024/03/15 00:10:48;;;;;;;4.23;3.57;;;;;;;9.89;74.56;98420.03;5097120;27;40591;-75
2024/03/15 00:13:15;;;;;;;5.67;3.90;;;;;;;9.87;75.58;98420.13;5114170;27;42792;-76
2024/03/15 00:15:43;;;;;;;6.00;4.10;;;;;;;9.82;75.02;98426.66;5097211;27;43250;-75
2024/03/15 00:18:10;;;;;;;4.80;4.03;;;;;;;9.81;74.75;98427.59;5080524;27;39945;-75
2024/03/15 00:20:39;;;;;;;5.17;3.60;;;;;;;9.79;74.66;98421.56;5097148;27;41612;-75
2024/03/15 00:23:07;;;;;;;4.70;3.50;;;;;;;9.77;75.28;98426.13;5114509;27;42573;-75
2024/03/15 00:25:35;;;;;;;4.80;3.73;;;;;;;9.74;75.17;98421.88;5097322;27;41238;-76
2024/03/15 00:28:03;;;;;;;4.47;3.20;;;;;;;9.69;75.11;98408.13;5097416;27;38561;-76
2024/03/15 00:30:31;;;;;;;4.03;3.60;;;;;;;9.69;75.05;98416.91;5097419;27;41649;-76
2024/03/15 00:32:58;;;;;;;4.03;3.10;;;;;;;9.66;75.13;98414.44;5115426;27;43719;-75
2024/03/15 00:35:27;;;;;;;3.70;3.10;;;;;;;9.65;74.94;98418.03;5100529;27;42033;-76
2024/03/15 00:37:54;;;;;;;3.97;2.63;;;;;;;9.64;74.91;98416.34;5117869;27;39989;-75
2024/03/15 00:40:22;;;;;;;4.80;3.33;;;;;;;9.61;74.99;98405.97;5100453;27;42796;-75
2024/03/15 00:42:49;;;;;;;3.90;3.13;;;;;;;9.62;74.97;98412.97;5083909;27;43188;-75
2024/03/15 00:45:17;;;;;;;4.47;3.30;;;;;;;9.61;75.14;98408.63;5117366;27;43250;-76
2024/03/15 00:47:45;;;;;;;5.77;3.77;;;;;;;9.61;75.03;98407.78;5101233;27;40905;-76
2024/03/15 00:50:12;;;;;;;5.27;3.57;;;;;;;9.58;74.95;98398.25;5116941;27;41812;-75
2024/03/15 00:52:40;;;;;;;4.97;3.60;;;;;;;9.54;74.98;98396.75;5117551;27;42787;-75
2024/03/15 00:55:09;;;;;;;7.07;3.87;;;;;;;9.41;74.85;98382.63;5100620;27;42338;-75
2024/03/15 00:57:36;;;;;;;6.07;4.03;;;;;;;9.48;75.04;98394.53;5084080;27;39129;-76
2024/03/15 01:00:04;;;;;;;4.30;3.50;;;;;;;9.44;75.08;98393.00;5099439;27;41776;-76
2024/03/15 01:02:35;;;;;;;6.47;3.90;;;;;;;9.39;74.90;98389.84;5100707;27;41701;-75
2024/03/15 01:05:05;;;;;;;5.50;4.23;;;;;;;9.36;75.38;98388.25;5101119;27;41469;-76
2024/03/15 01:07:33;;;;;;;7.20;4.23;;;;;;;9.35;75.54;98383.06;5101041;27;39873;-76
2024/03/15 01:10:00;;;;;;;5.63;4.10;;;;;;;9.27;75.23;98369.50;5100198;27;42879;-76
2024/03/15 01:12:28;;;;;;;5.13;3.97;;;;;;;9.31;75.50;98376.25;5100530;27;41793;-75
2024/03/15 01:14:56;;;;;;;5.27;3.93;;;;;;;9.29;75.78;98378.16;5083118;27;41528;-75
2024/03/15 01:17:24;;;;;;;6.53;4.43;;;;;;;9.28;75.90;98381.75;5100254;27;40358;-76
2024/03/15 01:19:52;;;;;;;5.90;4.37;;;;;;;9.27;76.04;98372.16;5082836;27;41752;-75
2024/03/15 01:22:21;;;;;;;7.13;4.43;;;;;;;9.26;75.57;98383.66;5117150;27;42727;-76
2024/03/15 01:24:48;;;;;;;5.77;3.67;;;;;;;9.25;75.97;98376.66;5083254;27;42140;-75
2024/03/15 01:27:16;;;;;;;4.57;3.60;;;;;;;9.23;75.97;98378.56;5117195;27;39892;-76
2024/03/15 01:29:44;;;;;;;6.50;4.50;;;;;;;9.23;76.07;98376.78;5099940;27;41736;-76
2024/03/15 01:32:12;;;;;;;5.83;3.77;;;;;;;9.23;76.14;98374.13;5100247;27;43748;-76
2024/03/15 01:34:39;;;;;;;7.97;4.60;;;;;;;9.24;76.26;98369.69;5099550;27;41548;-76
2024/03/15 01:37:07;;;;;;;4.13;3.60;;;;;;;9.25;76.37;98363.47;5083086;27;38392;-76
2024/03/15 01:39:35;;;;;;;4.70;4.00;;;;;;;9.27;76.33;98369.50;5099632;27;42511;-76
2024/03/15 01:42:02;;;;;;;5.83;4.33;;;;;;;9.29;76.08;98367.59;5099771;27;42807;-75
2024/03/15 01:44:36;;;;;;;5.27;4.07;;;;;;;9.31;76.17;98365.69;5116224;27;42321;-76
2024/03/15 01:47:04;;;;;;;5.07;3.80;;;;;;;9.31;76.37;98358.63;5083976;27;38811;-75
2024/03/15 01:49:31;;;;;;;4.83;3.57;;;;;;;9.27;76.03;98351.00;5099042;27;40959;-75
2024/03/15 01:51:59;;;;;;;5.70;4.20;;;;;;;9.32;76.07;98355.03;5099419;27;42904;-76
2024/03/15 01:54:29;;;;;;;5.30;4.10;;;;;;;9.19;76.24;98334.78;5099256;27;42256;-75
2024/03/15 01:56:56;;;;;;;4.37;3.47;;;;;;;9.32;76.08;98362.09;5117070;27;39987;-76
2024/03/15 01:59:25;;;;;;;5.03;3.50;;;;;;;9.28;76.41;98356.16;5098884;27;41845;-76
2024/03/15 02:02:00;;;;;;;4.20;3.23;;;;;;;9.32;76.32;98362.09;5099311;27;42829;-76
2024/03/15 02:04:28;;;;;;;4.77;3.60;;;;;;;9.30;76.29;98358.72;5099563;27;41594;-75
2024/03/15 02:06:56;;;;;;;3.70;3.30;;;;;;;9.26;76.15;98352.78;5099763;27;40132;-77
2024/03/15 02:09:24;;;;;;;4.77;3.83;;;;;;;9.24;76.71;98359.13;5116101;27;42463;-75
2024/03/15 02:11:53;;;;;;;5.07;3.90;;;;;;;9.21;77.02;98348.75;5082956;27;41329;-75
2024/03/15 02:14:20;;;;;;;5.53;4.10;;;;;;;9.18;76.82;98352.44;5099317;27;42228;-75
2024/03/15 02:16:48;;;;;;;6.73;4.47;;;;;;;9.16;77.29;98353.47;5116461;27;40921;-75
2024/03/15 02:19:16;;;;;;;4.93;3.70;;;;;;;9.14;77.35;98350.97;5115873;27;41635;-75
2024/03/15 02:21:44;;;;;;;5.93;4.53;;;;;;;9.08;77.07;98345.19;5099324;27;43686;-75
2024/03/15 02:24:11;;;;;;;5.60;4.27;;;;;;;9.14;77.36;98353.59;5082120;27;41079;-75
2024/03/15 02:26:39;;;;;;;5.60;4.03;;;;;;;9.16;76.85;98350.81;5099425;27;40811;-76
2024/03/15 02:29:08;;;;;;;6.63;4.70;;;;;;;9.17;77.08;98368.38;5116287;27;41806;-74
2024/03/15 02:31:35;;;;;;;5.97;5.13;;;;;;;9.17;76.94;98353.38;5082367;27;43297;-76
2024/03/15 02:34:03;;;;;;;5.73;4.50;;;;;;;9.18;77.32;98359.50;5099025;27;41573;-76
2024/03/15 02:36:31;;;;;;;4.70;3.67;;;;;;;9.19;77.36;98361.19;5082216;27;39387;-76
2024/03/15 02:38:59;;;;;;;4.83;4.13;;;;;;;9.18;77.43;98357.72;5099158;27;40653;-75
2024/03/15 02:41:26;;;;;;;4.83;3.90;;;;;;;9.21;77.58;98359.31;5098905;27;42828;-76
2024/03/15 02:43:54;;;;;;;4.53;3.53;;;;;;;9.20;77.81;98350.53;5099230;27;42296;-76
2024/03/15 02:46:21;;;;;;;5.30;4.17;;;;;;;9.22;78.36;98350.44;5098777;27;39829;-76
2024/03/15 02:48:49;;;;;;;5.63;4.30;;;;;;;9.17;78.14;98342.81;5115857;27;41867;-75
2024/03/15 02:51:17;;;;;;;5.23;4.00;;;;;;;9.25;78.58;98355.53;5115075;27;42415;-75
2024/03/15 02:53:44;;;;;;;4.57;3.83;;;;;;;9.25;78.37;98350.25;5098643;27;41118;-75
2024/03/15 02:56:14;;;;;;;4.77;3.83;;;;;;;9.26;78.35;98346.66;5097649;27;39703;-75
2024/03/15 02:58:46;;;;;;;4.93;3.47;;;;;;;9.25;78.69;98350.25;5081958;27;40880;-75
2024/03/15 03:01:14;;;;;;;5.30;3.97;;;;;;;9.24;78.51;98364.41;5099205;27;43674;-75
2024/03/15 03:03:42;;;;;;;4.73;3.57;;;;;;;9.22;78.56;98363.66;5099052;27;43223;-77
2024/03/15 03:06:10;;;;;;;4.23;3.20;;;;;;;9.21;78.80;98364.59;5098611;27;40641;-76
2024/03/15 03:08:38;;;;;;;6.37;4.60;;;;;;;9.11;78.81;98364.34;5098548;27;40949;-77
2024/03/15 03:11:06;;;;;;;4.37;3.57;;;;;;;9.15;78.66;98375.59;5098499;27;43707;-75
2024/03/15 03:13:34;;;;;;;4.83;3.73;;;;;;;9.12;79.43;98370.47;5081284;27;43974;-76
2024/03/15 03:16:02;;;;;;;5.33;3.87;;;;;;;9.08;79.09;98367.19;5115139;27;39974;-76
2024/03/15 03:18:29;;;;;;;5.13;3.60;;;;;;;9.07;79.20;98368.13;5081659;27;40695;-76
2024/03/15 03:20:57;;;;;;;4.23;3.73;;;;;;;9.06;79.43;98369.06;5097704;27;43528;-76
2024/03/15 03:23:26;;;;;;;4.57;3.73;;;;;;;8.98;79.24;98361.66;5098446;27;42980;-75
2024/03/15 03:25:53;;;;;;;4.73;3.47;;;;;;;9.02;79.66;98374.66;5098143;27;39696;-75
2024/03/15 03:28:21;;;;;;;4.67;3.53;;;;;;;9.01;80.06;98384.38;5115313;27;41643;-75
2024/03/15 03:30:49;;;;;;;4.60;3.43;;;;;;;8.98;80.00;98374.84;5081053;27;43272;-75
2024/03/15 03:33:17;;;;;;;5.90;4.20;;;;;;;8.95;80.38;98369.75;5115030;27;42200;-75
2024/03/15 03:35:44;;;;;;;4.23;3.10;;;;;;;8.94;80.16;98378.63;5114882;27;40202;-76
2024/03/15 03:38:12;;;;;;;4.90;3.37;;;;;;;8.89;80.38;98370.16;5081297;27;42074;-75
2024/03/15 03:40:41;;;;;;;5.17;3.83;;;;;;;8.94;80.30;98375.97;5097543;27;42909;-77
2024/03/15 03:43:09;;;;;;;5.17;3.83;;;;;;;8.95;80.58;98375.03;5098015;27;42468;-75
2024/03/15 03:45:38;;;;;;;6.03;4.40;;;;;;;8.96;80.58;98370.59;5114572;27;40099;-76
2024/03/15 03:48:07;;;;;;;4.13;3.53;;;;;;;8.97;80.33;98372.31;5115038;27;41810;-76
2024/03/15 03:50:35;;;;;;;4.50;3.63;;;;;;;8.97;82.14;98367.88;5080462;27;41632;-76
2024/03/15 03:53:03;;;;;;;4.63;3.83;;;;;;;8.96;81.66;98371.47;5097770;27;41081;-76
2024/03/15 03:55:33;;;;;;;5.13;3.80;;;;;;;8.96;81.66;98376.75;5097542;27;40443;-75
2024/03/15 03:58:02;;;;;;;5.10;3.87;;;;;;;8.94;81.62;98369.84;5098285;27;41696;-75
2024/03/15 04:00:31;;;;;;;5.40;3.77;;;;;;;8.92;81.74;98364.66;5113773;27;43711;-75
2024/03/15 04:02:58;;;;;;;4.00;3.57;;;;;;;8.89;81.74;98367.53;5114752;27;42227;-75
2024/03/15 04:05:26;;;;;;;4.30;3.50;;;;;;;8.87;81.82;98366.75;5097557;27;39093;-76
2024/03/15 04:07:55;;;;;;;3.97;3.20;;;;;;;8.84;82.46;98369.59;5116986;27;42628;-75
2024/03/15 04:10:22;;;;;;;3.87;3.47;;;;;;;8.69;82.09;98346.78;5118064;27;42833;-76
2024/03/15 04:12:50;;;;;;;4.63;3.60;;;;;;;8.77;81.96;98370.94;5101395;27;42344;-76
2024/03/15 04:15:19;;;;;;;5.83;4.23;;;;;;;8.67;82.12;98359.25;5101504;27;40079;-75
2024/03/15 04:17:46;;;;;;;6.67;3.93;;;;;;;8.68;82.12;98368.00;5084430;27;40083;-76
2024/03/15 04:20:16;;;;;;;4.93;3.73;;;;;;;8.64;82.21;98370.00;5117823;27;43846;-76
2024/03/15 04:22:45;;;;;;;4.50;3.57;;;;;;;8.59;82.41;98361.53;5101117;27;41028;-75
2024/03/15 04:25:16;;;;;;;4.63;3.60;;;;;;;8.55;82.06;98367.91;5101103;27;40054;-75
2024/03/15 04:27:46;;;;;;;4.50;3.20;;;;;;;8.51;82.40;98371.72;5098811;27;42286;-75
2024/03/15 04:30:18;;;;;;;4.10;3.27;;;;;;;8.50;82.23;98370.00;5101328;27;43655;-75
2024/03/15 04:32:46;;;;;;;4.63;3.73;;;;;;;8.48;82.48;98379.81;5102174;27;41995;-77
2024/03/15 04:35:17;;;;;;;3.27;2.87;;;;;;;8.43;82.51;98358.13;5117954;27;41115;-76
2024/03/15 04:37:45;;;;;;;3.97;3.27;;;;;;;8.47;82.34;98372.84;5085230;27;40573;-75
2024/03/15 04:40:14;;;;;;;4.67;3.60;;;;;;;8.46;82.18;98377.25;5100259;27;42639;-74
2024/03/15 04:42:41;;;;;;;3.47;3.10;;;;;;;8.47;82.41;98372.84;5084062;27;41871;-76
2024/03/15 04:45:09;;;;;;;3.90;3.17;;;;;;;8.41;82.19;98363.50;5100645;27;40087;-76
2024/03/15 04:47:39;;;;;;;4.83;3.40;;;;;;;8.42;82.35;98370.47;5101021;27;41852;-76
2024/03/15 04:50:09;;;;;;;5.93;4.30;;;;;;;8.53;82.26;98383.03;5099702;27;43961;-76
2024/03/15 04:52:37;;;;;;;4.73;3.50;;;;;;;8.56;82.44;98382.81;5117701;27;43144;-74
2024/03/15 04:55:05;;;;;;;6.80;4.10;;;;;;;8.59;82.36;98380.00;5100371;27;38740;-75
2024/03/15 04:57:36;;;;;;;5.07;3.80;;;;;;;8.62;82.40;98379.81;5101017;27;41776;-75
2024/03/15 05:00:17;;;;;;;4.47;3.50;;;;;;;8.65;83.87;98371.72;5114938;27;42912;-75
2024/03/15 05:02:45;;;;;;;4.80;3.80;;;;;;;8.76;83.47;98385.09;5101070;27;43224;-76
2024/03/15 05:05:14;;;;;;;3.13;2.87;;;;;;;8.87;82.69;98384.41;5117340;27;39992;-75
2024/03/15 05:07:42;;;;;;;3.57;3.27;;;;;;;8.93;83.02;98386.63;5100994;27;41196;-75
2024/03/15 05:10:13;;;;;;;4.87;3.50;;;;;;;8.98;82.73;98385.41;5100310;27;42746;-75
2024/03/15 05:12:41;;;;;;;3.87;2.93;;;;;;;8.84;82.62;98359.03;5101253;27;41285;-75
2024/03/15 05:15:10;;;;;;;3.20;2.70;;;;;;;9.06;82.27;98389.34;5116982;27;40786;-75
2024/03/15 05:17:39;;;;;;;4.13;3.10;;;;;;;9.06;82.65;98381.44;5083616;27;41727;-76
2024/03/15 05:20:12;;;;;;;3.77;3.23;;;;;;;9.07;82.27;98393.69;5116360;27;42693;-75
2024/03/15 05:22:39;;;;;;;4.57;3.93;;;;;;;9.05;82.38;98391.13;5084698;27;40707;-74
2024/03/15 05:25:09;;;;;;;3.47;3.00;;;;;;;9.02;82.49;98393.16;5100000;27;40295;-76
2024/03/15 05:27:37;;;;;;;3.43;3.13;;;;;;;8.99;82.56;98396.84;5117150;27;42690;-76
2024/03/15 05:30:05;;;;;;;3.87;3.03;;;;;;;8.96;83.20;98391.72;5116719;27;42671;-76
2024/03/15 05:32:33;;;;;;;4.47;4.07;;;;;;;8.93;85.58;98392.78;5083202;27;43838;-76
2024/03/15 05:35:01;;;;;;;5.63;4.23;;;;;;;8.92;85.42;98383.16;5099777;27;38986;-75
2024/03/15 05:37:29;;;;;;;5.20;3.77;;;;;;;8.92;85.29;98385.78;5082428;27;40995;-76
2024/03/15 05:39:56;;;;;;;5.77;4.23;;;;;;;8.91;85.00;98381.44;5116154;27;43800;-75
2024/03/15 05:42:25;;;;;;;4.53;3.67;;;;;;;8.84;85.62;98372.22;5082549;27;41277;-75
2024/03/15 05:44:53;;;;;;;4.10;3.50;;;;;;;8.90;85.88;98382.41;5082963;27;38940;-75
2024/03/15 05:47:21;;;;;;;3.60;3.17;;;;;;;8.88;85.51;98389.59;5082655;27;40806;-75
2024/03/15 05:49:48;;;;;;;3.87;3.37;;;;;;;8.90;85.38;98387.69;5115537;27;43852;-76
2024/03/15 05:52:16;;;;;;;4.87;3.63;;;;;;;8.89;85.29;98401.84;5099320;27;41157;-75
2024/03/15 05:54:43;;;;;;;3.70;2.93;;;;;;;8.87;85.15;98398.47;5099390;27;40909;-76
2024/03/15 05:57:11;;;;;;;4.20;3.80;;;;;;;8.85;85.13;98405.63;5116462;27;41690;-75
2024/03/15 05:59:39;;;;;;;4.90;3.63;;;;;;;8.81;85.21;98398.81;5082140;27;41437;-75
2024/03/15 06:02:06;;;;;;;4.47;3.63;;;;;;;8.82;84.86;98403.16;5099062;27;42873;-75
2024/03/15 06:04:34;;;;;;;4.20;3.80;;;;;;;8.82;84.80;98415.50;5099131;27;39898;-75
2024/03/15 06:07:02;;;;;;;6.17;4.57;;;;;;;8.83;84.76;98407.50;5099550;27;42079;-75
2024/03/15 06:09:30;;;;;;;5.70;4.70;;;;;;;8.84;86.74;98406.56;5098620;27;45028;-76
2024/03/15 06:11:57;;;;;;;5.20;4.30;;;;;;;8.88;86.18;98405.44;5099496;27;42289;-76
2024/03/15 06:14:25;;;;;;;6.77;4.03;;;;;;;8.94;86.49;98410.31;5098650;27;40030;-77
2024/03/15 06:16:54;;;;;;;4.53;3.60;;;;;;;9.04;86.43;98409.72;5115882;27;41787;-76
2024/03/15 06:19:22;;;;;;;4.80;4.07;;;;;;;9.14;86.41;98413.50;5098711;27;41829;-75
2024/03/15 06:21:49;;;;;;;5.27;4.07;;;;;;;9.23;86.13;98421.69;5098944;27;42063;-75
2024/03/15 06:24:19;;;;;;;5.00;4.13;;;;;;;9.32;85.63;98421.09;5098432;27;38772;-77
2024/03/15 06:26:47;;;;;;;5.67;4.27;;;;;;;9.41;87.11;98417.00;5099328;27;42672;-76
2024/03/15 06:29:18;;;;;;;4.93;3.93;;;;;;;9.50;87.08;98412.94;5098585;27;43844;-76
2024/03/15 06:31:48;;;;;;;4.00;3.40;;;;;;;9.61;87.01;98421.00;5098347;27;41981;-76
2024/03/15 06:34:22;;;;;;;4.63;3.60;;;;;;;9.76;86.62;98425.28;5098347;27;39982;-75
2024/03/15 06:36:53;;;;;;;5.03;3.90;;;;;;;9.92;87.31;98425.94;5083576;27;40141;-75
2024/03/15 06:39:25;;;;;;;3.27;2.97;;;;;;;10.05;87.31;98410.09;5098709;27;41763;-76
2024/03/15 06:41:54;;;;;;;3.97;3.33;;;;;;;9.96;89.04;98358.66;5098873;27;41721;-76
2024/03/15 06:44:35;;;;;;;3.77;3.10;;;;;;;10.48;88.06;98417.81;5098784;27;40024;-76
2024/03/15 06:47:15;;;;;;;3.07;2.60;;;;;;;10.65;87.23;98423.59;5085167;27;41225;-77
2024/03/15 06:49:48;;;;;;;3.43;3.00;;;;;;;10.84;86.69;98422.31;5099287;27;43421;-77
2024/03/15 06:55:03;;;;;;;3.70;3.00;;;;;;;11.14;87.03;98423.63;5114574;27;40024;-77
2024/03/15 06:57:31;;;;;;;5.50;3.87;;;;;;;11.27;86.79;98406.84;5094193;28;41892;-76
2024/03/15 06:59:58;;;;;;;5.03;3.10;;;;;;;11.60;85.96;98420.31;5111282;27;42523;-78
2024/03/15 07:02:26;;;;;;;4.23;3.07;;;;;;;11.90;85.48;98426.97;5092264;27;42648;-79
2024/03/15 07:04:53;;;;;;;3.83;2.90;;;;;;;12.23;84.22;98427.09;5102062;27;38846;-79
2024/03/15 07:07:22;;;;;;;2.73;2.53;;;;;;;12.83;82.95;98432.16;5136134;27;42773;-78
2024/03/15 07:09:49;;;;;;;3.10;2.73;;;;;;;13.27;80.31;98439.28;5118892;27;42952;-76
2024/03/15 07:12:17;;;;;;;3.40;2.53;;;;;;;13.40;78.51;98403.72;5118428;27;41426;-77
2024/03/15 07:14:44;;;;;;;2.63;2.43;;;;;;;14.06;76.96;98461.22;5119323;27;38794;-77
2024/03/15 07:17:12;;;;;;;2.50;2.30;;;;;;;14.63;74.85;98457.31;5119205;27;42784;-77
2024/03/15 07:19:40;;;;;;;4.13;2.97;;;;;;;15.48;71.45;98467.66;5101776;27;42903;-78
2024/03/15 07:22:07;;;;;;;4.43;2.80;;;;;;;16.95;67.83;98478.13;5101681;27;42761;-78
2024/03/15 07:24:35;;;;;;;6.03;3.17;;;;;;;18.78;61.33;98503.88;5101584;27;38922;-77
2024/03/15 07:27:04;;;;;;;3.17;2.87;;;;;;;20.76;55.20;98518.59;5118761;27;41962;-76
2024/03/15 07:29:32;;;;;;;3.30;2.63;;;;;;;22.90;50.08;98538.16;5118376;27;41834;-75
2024/03/15 07:32:01;;;;;;;5.43;2.87;;;;;;;24.67;46.22;98545.22;5135496;27;43287;-77
2024/03/15 07:34:28;;;;;;;3.85;2.42;;;;;;;26.49;42.20;98571.31;5135239;27;40616;-74
2024/03/15 07:36:57;;;;;;;2.20;1.98;;;;;;;27.50;39.48;98570.19;5135341;27;43255;-76
2024/03/15 07:39:28;;;;;;;4.93;2.60;;;;;;;27.81;38.94;98569.56;5117011;27;41768;-75
2024/03/15 07:41:59;;;;;;;2.83;2.05;;;;;;;28.42;37.52;98571.06;5118845;27;42676;-75
2024/03/15 07:44:27;;;;;;;3.55;2.22;;;;;;;27.18;38.32;98573.78;5101244;27;39401;-75
2024/03/15 07:46:56;;;;;;;2.15;1.90;;;;;;;26.21;38.80;98557.00;5100931;27;42881;-75
2024/03/15 07:49:24;;;;;;;3.10;2.28;;;;;;;26.75;38.02;98576.81;5117657;27;42647;-75
2024/03/15 07:51:53;;;;;;;2.30;2.10;;;;;;;27.75;35.20;98597.63;5102358;27;20226;-76
2024/03/15 07:54:21;;;;;;;1.85;1.75;;;;;;;28.82;34.16;98582.56;5134531;27;39948;-76
2024/03/15 07:56:49;;;;;;;2.17;1.70;;;;;;;28.16;34.37;98591.88;5101244;27;40303;-76
2024/03/15 07:59:19;;;;;;;2.30;2.10;;;;;;;26.49;36.11;98582.19;5100448;27;42324;-75
2024/03/15 08:01:46;;;;;;;2.93;2.30;;;;;;;25.15;37.41;98564.44;5118782;27;42866;-76
2024/03/15 08:04:14;;;;;;;3.30;1.83;;;;;;;24.02;38.81;98561.50;5134572;27;41297;-77
2024/03/15 08:06:42;;;;;;;2.07;1.87;;;;;;;23.13;40.61;98543.50;5134603;27;42709;-76
2024/03/15 08:09:11;;;;;;;2.80;2.17;;;;;;;22.74;40.88;98549.06;5134510;27;42617;-76
2024/03/15 08:11:38;;;;;;;2.83;1.90;;;;;;;22.47;41.92;98536.94;5135354;27;42356;-76
2024/03/15 08:14:06;;;;;;;3.87;1.80;;;;;;;21.87;43.33;98526.81;5134919;27;39990;-76
2024/03/15 08:16:37;;;;;;;2.03;1.77;;;;;;;21.50;44.10;98527.44;5100958;27;40656;-78
2024/03/15 08:19:07;;;;;;;3.33;1.93;;;;;;;21.64;44.34;98517.78;5135634;27;43530;-77
2024/03/15 08:21:34;;;;;;;2.57;1.80;;;;;;;21.92;44.13;98524.41;5135255;27;42510;-77
2024/03/15 08:24:04;;;;;;;2.77;2.00;;;;;;;22.73;42.49;98510.44;5134860;27;39833;-76
2024/03/15 08:26:32;;;;;;;2.77;1.83;;;;;;;24.77;40.36;98544.88;5118252;27;41956;-76
2024/03/15 08:29:00;;;;;;;2.93;2.10;;;;;;;26.88;37.33;98561.59;5100857;27;45621;-76
2024/03/15 08:31:27;;;;;;;6.05;1.88;;;;;;;27.92;35.62;98570.78;5117889;27;41260;-80
2024/03/15 08:33:55;;;;;;;1.98;1.65;;;;;;;28.19;34.78;98575.09;5118428;27;40047;-80
2024/03/15 08:36:23;;;;;;;2.20;2.00;;;;;;;28.47;33.20;98582.13;5117280;27;43724;-78
2024/03/15 08:38:51;;;;;;;2.95;2.00;;;;;;;28.28;33.74;98588.50;5134637;27;42811;-80
2024/03/15 08:41:19;;;;;;;2.78;1.90;;;;;;;29.00;32.88;98585.41;5117920;27;43433;-77
2024/03/15 08:43:46;;;;;;;2.13;1.92;;;;;;;30.18;30.78;98591.69;5118164;27;40095;-78
2024/03/15 08:46:14;;;;;;;1.98;1.70;;;;;;;31.05;30.42;98612.22;5117204;27;42028;-77
2024/03/15 08:48:42;;;;;;;1.85;1.75;;;;;;;32.26;29.03;98613.59;5117618;27;42648;-77
2024/03/15 08:51:09;;;;;;;1.77;1.40;;;;;;;33.13;27.26;98625.22;5133773;27;42187;-76
2024/03/15 08:53:37;;;;;;;1.48;1.38;;;;;;;33.75;26.90;98622.50;5117926;27;40105;-76
2024/03/15 08:56:05;;;;;;;2.08;1.58;;;;;;;33.78;26.34;98621.13;5120353;27;42739;-76
2024/03/15 08:58:33;;;;;;;1.65;1.52;;;;;;;34.14;25.88;98630.72;5137905;27;42840;-76
2024/03/15 09:01:04;;;;;;;1.83;1.35;;;;;;;34.82;25.42;98637.72;5103241;27;41143;-76
2024/03/15 09:03:33;;;;;;;1.67;1.58;;;;;;;35.17;25.39;98624.34;5135250;27;41001;-77
2024/03/15 09:06:06;;;;;;;1.40;1.30;;;;;;;34.72;25.08;98626.56;5137392;27;42695;-76
2024/03/15 09:08:35;;;;;;;2.25;1.60;;;;;;;34.73;25.94;98618.06;5104974;27;42479;-76
2024/03/15 09:11:02;;;;;;;2.80;1.52;;;;;;;34.45;24.93;98605.34;5102821;27;43258;-76
2024/03/15 09:13:30;;;;;;;1.40;1.30;;;;;;;34.02;25.04;98627.25;5103254;27;39561;-76
2024/03/15 09:15:58;;;;;;;2.47;1.60;;;;;;;33.28;25.82;98626.59;5136228;27;41561;-77
2024/03/15 09:18:27;;;;;;;2.67;1.65;;;;;;;32.96;26.37;98618.84;5120732;27;42710;-78
2024/03/15 09:20:55;;;;;;;1.88;1.30;;;;;;;32.91;26.86;98610.53;5137137;27;43374;-78
2024/03/15 09:23:24;;;;;;;2.25;1.23;;;;;;;33.11;26.61;98610.09;5120170;27;38379;-77
2024/03/15 09:25:51;;;;;;;2.15;1.40;;;;;;;32.45;27.18;98612.34;5120217;27;42200;-77
2024/03/15 09:28:19;;;;;;;1.40;1.10;;;;;;;31.22;28.62;98604.22;5120561;27;42584;-77
2024/03/15 09:30:49;;;;;;;2.08;1.63;;;;;;;30.09;29.54;98603.16;5120001;27;42128;-76
2024/03/15 09:33:18;;;;;;;2.27;2.00;;;;;;;28.88;30.91;98596.19;5120587;27;40145;-78
2024/03/15 09:35:46;;;;;;;2.97;1.60;;;;;;;28.00;31.96;98583.31;5102988;27;41882;-77
2024/03/15 09:38:14;;;;;;;2.10;1.30;;;;;;;26.89;32.90;98564.09;5119919;27;41456;-76
2024/03/15 09:40:42;;;;;;;2.13;1.70;;;;;;;26.09;34.70;98557.56;5102553;27;41262;-79
2024/03/15 09:43:11;;;;;;;1.53;1.40;;;;;;;25.64;35.47;98558.16;5137203;27;40961;-77
2024/03/15 09:45:38;;;;;;;2.77;1.70;;;;;;;25.10;36.60;98544.41;5136982;27;41841;-76
2024/03/15 09:48:07;;;;;;;2.37;1.57;;;;;;;24.68;37.25;98537.94;5136214;27;43103;-77
2024/03/15 09:50:35;;;;;;;1.57;1.47;;;;;;;24.27;38.29;98553.94;5119090;27;41459;-76
2024/03/15 09:53:03;;;;;;;2.10;1.17;;;;;;;23.69;39.14;98542.13;5120772;27;39889;-77
2024/03/15 09:55:30;;;;;;;2.00;1.50;;;;;;;23.33;39.88;98533.03;5103643;27;42415;-77
2024/03/15 09:57:58;;;;;;;3.73;1.37;;;;;;;23.02;40.62;98512.38;5119843;27;42496;-79
2024/03/15 10:00:26;;;;;;;1.80;1.40;;;;;;;22.91;41.40;98523.63;5119776;27;41357;-76
2024/03/15 10:02:53;;;;;;;3.33;1.77;;;;;;;22.64;41.56;98522.28;5119720;27;40154;-76
2024/03/15 10:05:21;;;;;;;2.13;1.40;;;;;;;22.44;42.28;98510.31;5119234;27;41998;-75
2024/03/15 10:07:49;;;;;;;2.33;1.40;;;;;;;22.16;43.03;98512.69;5119768;27;42210;-77
2024/03/15 10:10:16;;;;;;;3.00;1.23;;;;;;;21.91;42.91;98508.41;5119446;27;43459;-75
2024/03/15 10:12:45;;;;;;;2.33;1.50;;;;;;;21.78;43.52;98512.50;5102665;27;39409;-77
2024/03/15 10:15:12;;;;;;;1.93;1.37;;;;;;;21.65;43.53;98509.53;5136413;27;41810;-76
2024/03/15 10:17:40;;;;;;;2.23;1.67;;;;;;;21.67;44.24;98502.09;5136310;27;43554;-76
2024/03/15 10:20:12;;;;;;;2.30;1.27;;;;;;;21.78;43.95;98509.81;5119180;27;43548;-76
2024/03/15 10:22:40;;;;;;;1.67;1.47;;;;;;;21.75;44.15;98503.94;5136855;27;39966;-76
2024/03/15 10:25:10;;;;;;;1.70;1.30;;;;;;;21.65;44.11;98506.81;5100117;27;42036;-77
2024/03/15 10:27:38;;;;;;;1.97;1.27;;;;;;;21.38;44.92;98507.28;5078253;28;41957;-76
2024/03/15 10:30:09;;;;;;;2.87;1.50;;;;;;;21.14;45.79;98511.66;5101405;27;44857;-76
2024/03/15 10:32:37;;;;;;;1.73;1.50;;;;;;;20.92;45.79;98512.34;5102822;27;41193;-77
2024/03/15 10:35:06;;;;;;;1.53;1.40;;;;;;;20.65;46.32;98507.31;5118357;27;42243;-77
2024/03/15 10:37:34;;;;;;;1.80;1.27;;;;;;;20.55;46.54;98510.19;5119354;27;43788;-79
2024/03/15 10:40:04;;;;;;;1.57;1.47;;;;;;;20.44;46.86;98503.28;5101196;27;41546;-80
2024/03/15 10:42:32;;;;;;;2.50;1.27;;;;;;;20.17;46.79;98489.25;5119762;27;40321;-76
2024/03/15 10:44:59;;;;;;;1.30;1.03;;;;;;;19.96;47.80;98479.81;5135777;27;41766;-78
2024/03/15 10:47:28;;;;;;;1.30;1.13;;;;;;;20.27;47.75;98506.94;5135997;27;42589;-79
2024/03/15 10:49:55;;;;;;;1.77;1.30;;;;;;;20.67;47.16;98508.00;5117717;27;42188;-77
2024/03/15 10:52:23;;;;;;;1.60;1.30;;;;;;;21.23;46.24;98506.28;5118992;27;40063;-77
2024/03/15 10:54:51;;;;;;;1.00;0.90;;;;;;;21.82;45.10;98527.31;5118679;27;41873;-76
2024/03/15 10:57:19;;;;;;;1.70;1.10;;;;;;;22.17;44.20;98528.69;5119075;27;42858;-78
2024/03/15 10:59:46;;;;;;;1.40;1.30;;;;;;;22.48;43.36;98534.06;5118399;27;40968;-75
2024/03/15 11:02:14;;;;;;;1.33;1.20;;;;;;;22.57;42.89;98532.16;5118805;27;41007;-76
2024/03/15 11:04:42;;;;;;;5.90;1.33;;;;;;;22.52;42.91;98532.66;5100820;27;40412;-76
2024/03/15 11:07:10;;;;;;;1.63;1.00;;;;;;;22.84;42.29;98534.34;5101299;27;42917;-76
2024/03/15 11:09:40;;;;;;;1.13;1.00;;;;;;;22.88;42.88;98534.78;5118005;27;43189;-76
2024/03/15 11:12:07;;;;;;;1.43;1.33;;;;;;;22.55;42.77;98524.22;5135700;27;40088;-77
2024/03/15 11:14:35;;;;;;;1.70;1.03;;;;;;;22.17;42.93;98530.53;5135078;27;41630;-79
2024/03/15 11:17:06;;;;;;;2.00;1.30;;;;;;;21.72;44.20;98524.00;5118138;27;43098;-78
2024/03/15 11:19:45;;;;;;;0.90;0.90;;;;;;;21.37;44.82;98522.59;5102153;27;40605;-76
2024/03/15 11:22:19;;;;;;;0.60;0.60;;;;;;;21.12;45.42;98524.47;5132805;27;40132;-77
2024/03/15 11:24:50;;;;;;;1.10;0.90;;;;;;;20.82;45.73;98521.63;5117939;27;42696;-76
2024/03/15 11:27:17;;;;;;;1.17;1.07;;;;;;;20.62;46.44;98523.81;5119179;27;42490;-75
2024/03/15 11:29:46;;;;;;;1.40;1.00;;;;;;;20.48;47.05;98519.09;5117352;27;42322;-75
2024/03/15 11:32:13;;;;;;;0.70;0.70;;;;;;;20.34;47.23;98507.94;5101228;27;40495;-75
2024/03/15 11:34:42;;;;;;;1.40;0.83;;;;;;;20.18;48.26;98515.97;5135014;27;42667;-76
2024/03/15 11:37:11;;;;;;;1.00;0.80;;;;;;;20.19;48.33;98525.72;5118297;27;42012;-76
2024/03/15 11:39:38;;;;;;;1.00;0.90;;;;;;;20.23;48.51;98510.97;5118520;27;42512;-77
2024/03/15 11:42:06;;;;;;;1.80;0.80;;;;;;;20.14;48.48;98505.72;5101793;27;38969;-81
2024/03/15 11:44:35;;;;;;;2.53;0.90;;;;;;;19.97;49.00;98515.59;5135504;27;41785;-78
2024/03/15 11:47:03;;;;;;;2.03;1.17;;;;;;;19.77;50.18;98506.13;5118105;27;42240;-76